sensor_id;sensor_type;location;lat;lon;timestamp;temperature;humidity
20208;DHT22;10263;48.716;8.760;2023-07-16T00:00:58;18.50;99.90
20208;DHT22;10263;48.716;8.760;2023-07-16T00:03:25;18.50;99.90
20208;DHT22;10263;48.716;8.760;2023-07-16T00:05:52;18.50;99.90
20208;DHT22;10263;48.716;8.760;2023-07-16T00:08:20;18.40;99.90
20208;DHT22;10263;48.716;8.760;2023-07-16T00:10:47;18.40;99.90
20208;DHT22;10263;48.716;8.760;2023-07-16T00:13:13;18.30;99.90
20208;DHT22;10263;48.716;8.760;2023-07-16T00:15:41;18.30;99.90
20208;DHT22;10263;48.716;8.760;2023-07-16T00:18:08;18.30;99.90
20208;DHT22;10263;48.716;8.760;2023-07-16T00:20:35;18.30;99.90
20208;DHT22;10263;48.716;8.760;2023-07-16T00:23:01;18.20;99.90
20208;DHT22;10263;48.716;8.760;2023-07-16T00:25:29;18.20;99.90
20208;DHT22;10263;48.716;8.760;2023-07-16T00:27:57;18.10;99.90
20208;DHT22;10263;48.716;8.760;2023-07-16T00:30:24;18.10;99.90
20208;DHT22;10263;48.716;8.760;2023-07-16T00:32:50;18.10;99.90
20208;DHT22;10263;48.716;8.760;2023-07-16T00:35:17;18.00;99.90
20208;DHT22;10263;48.716;8.760;2023-07-16T00:37:44;18.00;99.90
20208;DHT22;10263;48.716;8.760;2023-07-16T00:40:11;17.90;99.90
20208;DHT22;10263;48.716;8.760;2023-07-16T00:42:40;17.90;99.90
20208;DHT22;10263;48.716;8.760;2023-07-16T00:45:11;17.80;99.90
20208;DHT22;10263;48.716;8.760;2023-07-16T00:47:40;17.80;99.90
20208;DHT22;10263;48.716;8.760;2023-07-16T00:50:08;17.80;99.90
20208;DHT22;10263;48.716;8.760;2023-07-16T00:52:35;17.70;99.90
20208;DHT22;10263;48.716;8.760;2023-07-16T00:55:03;17.70;99.90
20208;DHT22;10263;48.716;8.760;2023-07-16T00:57:30;17.60;99.90
20208;DHT22;10263;48.716;8.760;2023-07-16T00:59:59;17.50;99.90
20208;DHT22;10263;48.716;8.760;2023-07-16T01:02:26;17.50;99.90
20208;DHT22;10263;48.716;8.760;2023-07-16T01:04:53;17.40;99.90
20208;DHT22;10263;48.716;8.760;2023-07-16T01:07:20;17.30;99.90
20208;DHT22;10263;48.716;8.760;2023-07-16T01:09:49;17.30;99.90
20208;DHT22;10263;48.716;8.760;2023-07-16T01:12:20;17.20;99.90
20208;DHT22;10263;48.716;8.760;2023-07-16T01:14:47;17.20;99.90
20208;DHT22;10263;48.716;8.760;2023-07-16T01:17:15;17.20;99.90
20208;DHT22;10263;48.716;8.760;2023-07-16T01:19:42;17.10;99.90
20208;DHT22;10263;48.716;8.760;2023-07-16T01:22:27;17.10;99.90
20208;DHT22;10263;48.716;8.760;2023-07-16T01:25:05;17.10;99.90
20208;DHT22;10263;48.716;8.760;2023-07-16T01:30:44;17.10;99.90
20208;DHT22;10263;48.716;8.760;2023-07-16T01:33:13;17.10;99.90
20208;DHT22;10263;48.716;8.760;2023-07-16T01:35:40;17.10;99.90
20208;DHT22;10263;48.716;8.760;2023-07-16T01:38:09;17.10;99.90
20208;DHT22;10263;48.716;8.760;2023-07-16T01:40:37;17.00;99.90
20208;DHT22;10263;48.716;8.760;2023-07-16T01:43:04;17.00;99.90
20208;DHT22;10263;48.716;8.760;2023-07-16T01:45:30;17.00;99.90
20208;DHT22;10263;48.716;8.760;2023-07-16T01:48:08;17.00;99.90
20208;DHT22;10263;48.716;8.760;2023-07-16T01:50:39;16.90;99.90
20208;DHT22;10263;48.716;8.760;2023-07-16T01:53:06;16.90;99.90
20208;DHT22;10263;48.716;8.760;2023-07-16T01:55:32;16.90;99.90
20208;DHT22;10263;48.716;8.760;2023-07-16T01:57:59;16.90;99.90
20208;DHT22;10263;48.716;8.760;2023-07-16T02:00:26;16.90;99.90
20208;DHT22;10263;48.716;8.760;2023-07-16T02:02:53;16.90;99.90
20208;DHT22;10263;48.716;8.760;2023-07-16T02:05:21;16.80;99.90
20208;DHT22;10263;48.716;8.760;2023-07-16T02:07:48;16.80;99.90
20208;DHT22;10263;48.716;8.760;2023-07-16T02:10:14;16.80;99.90
20208;DHT22;10263;48.716;8.760;2023-07-16T02:12:41;16.80;99.90
20208;DHT22;10263;48.716;8.760;2023-07-16T02:15:08;16.80;99.90
20208;DHT22;10263;48.716;8.760;2023-07-16T02:17:36;16.80;99.90
20208;DHT22;10263;48.716;8.760;2023-07-16T02:20:04;16.80;99.90
20208;DHT22;10263;48.716;8.760;2023-07-16T02:22:34;16.60;99.90
20208;DHT22;10263;48.716;8.760;2023-07-16T02:25:01;16.70;99.90
20208;DHT22;10263;48.716;8.760;2023-07-16T02:27:28;16.70;99.90
20208;DHT22;10263;48.716;8.760;2023-07-16T02:29:55;16.60;99.90
20208;DHT22;10263;48.716;8.760;2023-07-16T02:32:22;16.60;99.90
20208;DHT22;10263;48.716;8.760;2023-07-16T02:34:49;16.60;99.90
20208;DHT22;10263;48.716;8.760;2023-07-16T02:37:16;16.60;99.90
20208;DHT22;10263;48.716;8.760;2023-07-16T02:39:45;16.50;99.90
20208;DHT22;10263;48.716;8.760;2023-07-16T02:42:14;16.60;99.90
20208;DHT22;10263;48.716;8.760;2023-07-16T02:44:41;16.60;99.90
20208;DHT22;10263;48.716;8.760;2023-07-16T02:47:10;16.60;99.90
20208;DHT22;10263;48.716;8.760;2023-07-16T02:49:37;16.60;99.90
20208;DHT22;10263;48.716;8.760;2023-07-16T02:52:05;16.60;99.90
20208;DHT22;10263;48.716;8.760;2023-07-16T02:54:32;16.50;99.90
20208;DHT22;10263;48.716;8.760;2023-07-16T02:57:01;16.40;99.90
20208;DHT22;10263;48.716;8.760;2023-07-16T02:59:28;16.40;99.90
20208;DHT22;10263;48.716;8.760;2023-07-16T03:01:55;16.40;99.90
20208;DHT22;10263;48.716;8.760;2023-07-16T03:04:21;16.40;99.90
20208;DHT22;10263;48.716;8.760;2023-07-16T03:06:48;16.30;99.90
20208;DHT22;10263;48.716;8.760;2023-07-16T03:09:15;16.30;99.90
20208;DHT22;10263;48.716;8.760;2023-07-16T03:11:42;16.20;99.90
20208;DHT22;10263;48.716;8.760;2023-07-16T03:14:10;16.30;99.90
20208;DHT22;10263;48.716;8.760;2023-07-16T03:16:36;16.30;99.90
20208;DHT22;10263;48.716;8.760;2023-07-16T03:19:03;16.30;99.90
20208;DHT22;10263;48.716;8.760;2023-07-16T03:21:31;16.20;99.90
20208;DHT22;10263;48.716;8.760;2023-07-16T03:23:58;16.20;99.90
20208;DHT22;10263;48.716;8.760;2023-07-16T03:26:25;16.20;99.90
20208;DHT22;10263;48.716;8.760;2023-07-16T03:28:51;16.20;99.90
20208;DHT22;10263;48.716;8.760;2023-07-16T03:31:19;16.20;99.90
20208;DHT22;10263;48.716;8.760;2023-07-16T03:33:48;16.20;99.90
20208;DHT22;10263;48.716;8.760;2023-07-16T03:36:18;16.10;99.90
20208;DHT22;10263;48.716;8.760;2023-07-16T03:38:45;16.10;99.90
20208;DHT22;10263;48.716;8.760;2023-07-16T03:41:12;16.00;99.90
20208;DHT22;10263;48.716;8.760;2023-07-16T03:43:39;16.00;99.90
20208;DHT22;10263;48.716;8.760;2023-07-16T03:46:16;16.00;99.90
20208;DHT22;10263;48.716;8.760;2023-07-16T03:48:44;15.90;99.90
20208;DHT22;10263;48.716;8.760;2023-07-16T03:51:11;16.00;99.90
20208;DHT22;10263;48.716;8.760;2023-07-16T03:53:38;15.90;99.90
20208;DHT22;10263;48.716;8.760;2023-07-16T03:56:05;16.00;99.90
20208;DHT22;10263;48.716;8.760;2023-07-16T03:58:32;15.90;99.90
20208;DHT22;10263;48.716;8.760;2023-07-16T04:01:01;15.80;99.90
20208;DHT22;10263;48.716;8.760;2023-07-16T04:03:28;15.80;99.90
20208;DHT22;10263;48.716;8.760;2023-07-16T04:06:02;15.80;99.90
20208;DHT22;10263;48.716;8.760;2023-07-16T04:08:29;15.80;99.90
20208;DHT22;10263;48.716;8.760;2023-07-16T04:10:56;15.80;99.90
20208;DHT22;10263;48.716;8.760;2023-07-16T04:13:22;15.80;99.90
20208;DHT22;10263;48.716;8.760;2023-07-16T04:15:49;15.80;99.90
20208;DHT22;10263;48.716;8.760;2023-07-16T04:18:18;15.90;99.90
20208;DHT22;10263;48.716;8.760;2023-07-16T04:20:45;15.90;99.90
20208;DHT22;10263;48.716;8.760;2023-07-16T04:23:13;15.80;99.90
20208;DHT22;10263;48.716;8.760;2023-07-16T04:25:40;15.80;99.90
20208;DHT22;10263;48.716;8.760;2023-07-16T04:28:07;15.80;99.90
20208;DHT22;10263;48.716;8.760;2023-07-16T04:30:34;15.90;99.90
20208;DHT22;10263;48.716;8.760;2023-07-16T04:33:02;15.90;99.90
20208;DHT22;10263;48.716;8.760;2023-07-16T04:35:29;15.90;99.90
20208;DHT22;10263;48.716;8.760;2023-07-16T04:37:56;15.90;99.90
20208;DHT22;10263;48.716;8.760;2023-07-16T04:40:24;15.90;99.90
20208;DHT22;10263;48.716;8.760;2023-07-16T04:42:51;15.90;99.90
20208;DHT22;10263;48.716;8.760;2023-07-16T04:45:18;15.80;99.90
20208;DHT22;10263;48.716;8.760;2023-07-16T04:47:45;15.90;99.90
20208;DHT22;10263;48.716;8.760;2023-07-16T04:50:11;15.90;99.90
20208;DHT22;10263;48.716;8.760;2023-07-16T04:52:38;15.90;99.90
20208;DHT22;10263;48.716;8.760;2023-07-16T04:55:06;15.90;99.90
20208;DHT22;10263;48.716;8.760;2023-07-16T04:57:34;15.80;99.90
20208;DHT22;10263;48.716;8.760;2023-07-16T05:00:01;15.80;99.90
20208;DHT22;10263;48.716;8.760;2023-07-16T05:02:28;15.70;99.90
20208;DHT22;10263;48.716;8.760;2023-07-16T05:04:55;15.90;99.90
20208;DHT22;10263;48.716;8.760;2023-07-16T05:07:22;15.90;99.90
20208;DHT22;10263;48.716;8.760;2023-07-16T05:09:48;15.90;99.90
20208;DHT22;10263;48.716;8.760;2023-07-16T05:12:15;15.90;99.90
20208;DHT22;10263;48.716;8.760;2023-07-16T05:14:46;16.00;99.90
20208;DHT22;10263;48.716;8.760;2023-07-16T05:17:13;16.00;99.90
20208;DHT22;10263;48.716;8.760;2023-07-16T05:19:39;16.00;99.90
20208;DHT22;10263;48.716;8.760;2023-07-16T05:22:06;16.00;99.90
20208;DHT22;10263;48.716;8.760;2023-07-16T05:24:33;16.00;99.90
20208;DHT22;10263;48.716;8.760;2023-07-16T05:27:00;16.00;99.90
20208;DHT22;10263;48.716;8.760;2023-07-16T05:29:28;16.10;99.90
20208;DHT22;10263;48.716;8.760;2023-07-16T05:31:56;16.20;99.90
20208;DHT22;10263;48.716;8.760;2023-07-16T05:34:23;16.20;99.90
20208;DHT22;10263;48.716;8.760;2023-07-16T05:36:52;16.20;99.90
20208;DHT22;10263;48.716;8.760;2023-07-16T05:39:19;16.20;99.90
20208;DHT22;10263;48.716;8.760;2023-07-16T05:41:46;16.20;99.90
20208;DHT22;10263;48.716;8.760;2023-07-16T05:44:12;16.20;99.90
20208;DHT22;10263;48.716;8.760;2023-07-16T05:46:39;16.20;99.90
20208;DHT22;10263;48.716;8.760;2023-07-16T05:49:07;16.20;99.90
20208;DHT22;10263;48.716;8.760;2023-07-16T05:51:34;16.10;99.90
20208;DHT22;10263;48.716;8.760;2023-07-16T05:54:01;16.20;99.90
20208;DHT22;10263;48.716;8.760;2023-07-16T05:56:28;16.20;99.90
20208;DHT22;10263;48.716;8.760;2023-07-16T05:58:55;16.10;99.90
20208;DHT22;10263;48.716;8.760;2023-07-16T06:01:21;16.10;99.90
20208;DHT22;10263;48.716;8.760;2023-07-16T06:03:48;16.10;99.90
20208;DHT22;10263;48.716;8.760;2023-07-16T06:06:16;16.20;99.90
20208;DHT22;10263;48.716;8.760;2023-07-16T06:08:43;16.20;99.90
20208;DHT22;10263;48.716;8.760;2023-07-16T06:11:10;16.20;99.90
20208;DHT22;10263;48.716;8.760;2023-07-16T06:13:37;16.20;99.90
20208;DHT22;10263;48.716;8.760;2023-07-16T06:16:04;16.30;99.90
20208;DHT22;10263;48.716;8.760;2023-07-16T06:18:31;16.30;99.90
20208;DHT22;10263;48.716;8.760;2023-07-16T06:20:58;16.30;99.90
20208;DHT22;10263;48.716;8.760;2023-07-16T06:23:26;16.30;99.90
20208;DHT22;10263;48.716;8.760;2023-07-16T06:25:54;16.40;99.90
20208;DHT22;10263;48.716;8.760;2023-07-16T06:28:22;16.40;99.90
20208;DHT22;10263;48.716;8.760;2023-07-16T06:30:49;16.50;99.90
20208;DHT22;10263;48.716;8.760;2023-07-16T06:33:17;16.40;99.90
20208;DHT22;10263;48.716;8.760;2023-07-16T06:35:44;16.40;99.90
20208;DHT22;10263;48.716;8.760;2023-07-16T06:38:12;16.40;99.90
20208;DHT22;10263;48.716;8.760;2023-07-16T06:40:45;16.40;99.90
20208;DHT22;10263;48.716;8.760;2023-07-16T06:43:12;16.40;99.90
20208;DHT22;10263;48.716;8.760;2023-07-16T06:45:38;16.50;99.90
20208;DHT22;10263;48.716;8.760;2023-07-16T06:48:05;16.60;99.90
20208;DHT22;10263;48.716;8.760;2023-07-16T06:50:32;16.50;99.90
20208;DHT22;10263;48.716;8.760;2023-07-16T06:52:59;16.50;99.90
20208;DHT22;10263;48.716;8.760;2023-07-16T06:55:26;16.60;99.90
20208;DHT22;10263;48.716;8.760;2023-07-16T06:57:54;16.70;99.90
20208;DHT22;10263;48.716;8.760;2023-07-16T07:00:20;16.80;99.90
20208;DHT22;10263;48.716;8.760;2023-07-16T07:02:47;17.00;99.90
20208;DHT22;10263;48.716;8.760;2023-07-16T07:05:15;17.30;99.90
20208;DHT22;10263;48.716;8.760;2023-07-16T07:07:42;17.60;99.90
20208;DHT22;10263;48.716;8.760;2023-07-16T07:10:11;17.60;99.90
20208;DHT22;10263;48.716;8.760;2023-07-16T07:12:38;17.80;99.90
20208;DHT22;10263;48.716;8.760;2023-07-16T07:15:08;17.90;99.90
20208;DHT22;10263;48.716;8.760;2023-07-16T07:17:35;15.50;99.90
20208;DHT22;10263;48.716;8.760;2023-07-16T07:20:02;17.70;99.90
20208;DHT22;10263;48.716;8.760;2023-07-16T07:22:31;17.70;99.90
20208;DHT22;10263;48.716;8.760;2023-07-16T07:24:58;17.60;99.90
20208;DHT22;10263;48.716;8.760;2023-07-16T07:27:25;17.60;99.90
20208;DHT22;10263;48.716;8.760;2023-07-16T07:29:51;17.40;99.90
20208;DHT22;10263;48.716;8.760;2023-07-16T07:32:22;17.30;99.90
20208;DHT22;10263;48.716;8.760;2023-07-16T07:34:49;17.30;99.90
20208;DHT22;10263;48.716;8.760;2023-07-16T07:37:15;17.60;99.90
20208;DHT22;10263;48.716;8.760;2023-07-16T07:39:42;17.80;99.90
20208;DHT22;10263;48.716;8.760;2023-07-16T07:42:13;17.80;99.90
20208;DHT22;10263;48.716;8.760;2023-07-16T07:44:39;17.60;99.90
20208;DHT22;10263;48.716;8.760;2023-07-16T07:47:06;17.50;99.90
20208;DHT22;10263;48.716;8.760;2023-07-16T07:49:35;17.50;99.90
20208;DHT22;10263;48.716;8.760;2023-07-16T07:52:02;17.50;99.90
20208;DHT22;10263;48.716;8.760;2023-07-16T07:54:31;17.40;99.90
20208;DHT22;10263;48.716;8.760;2023-07-16T07:57:00;17.40;99.90
20208;DHT22;10263;48.716;8.760;2023-07-16T07:59:28;17.50;99.90
20208;DHT22;10263;48.716;8.760;2023-07-16T08:01:58;17.50;99.90
20208;DHT22;10263;48.716;8.760;2023-07-16T08:04:27;17.60;99.90
20208;DHT22;10263;48.716;8.760;2023-07-16T08:06:55;17.60;99.90
20208;DHT22;10263;48.716;8.760;2023-07-16T08:09:22;17.60;99.90
20208;DHT22;10263;48.716;8.760;2023-07-16T08:11:49;17.70;99.90
20208;DHT22;10263;48.716;8.760;2023-07-16T08:14:16;17.80;99.90
20208;DHT22;10263;48.716;8.760;2023-07-16T08:16:42;18.30;99.90
20208;DHT22;10263;48.716;8.760;2023-07-16T08:21:36;18.60;99.90
20208;DHT22;10263;48.716;8.760;2023-07-16T08:24:05;18.70;99.90
20208;DHT22;10263;48.716;8.760;2023-07-16T08:26:33;18.70;99.90
20208;DHT22;10263;48.716;8.760;2023-07-16T08:29:00;18.60;99.90
20208;DHT22;10263;48.716;8.760;2023-07-16T08:31:28;18.60;99.90
20208;DHT22;10263;48.716;8.760;2023-07-16T08:33:55;18.50;99.90
20208;DHT22;10263;48.716;8.760;2023-07-16T08:36:22;18.50;99.90
20208;DHT22;10263;48.716;8.760;2023-07-16T08:38:48;18.70;99.90
20208;DHT22;10263;48.716;8.760;2023-07-16T08:41:17;19.10;99.90
20208;DHT22;10263;48.716;8.760;2023-07-16T08:43:45;19.50;99.90
20208;DHT22;10263;48.716;8.760;2023-07-16T08:46:13;19.80;99.90
20208;DHT22;10263;48.716;8.760;2023-07-16T08:48:45;19.80;99.90
20208;DHT22;10263;48.716;8.760;2023-07-16T08:51:14;19.70;99.90
20208;DHT22;10263;48.716;8.760;2023-07-16T08:53:41;20.00;99.90
20208;DHT22;10263;48.716;8.760;2023-07-16T08:56:08;20.40;99.90
20208;DHT22;10263;48.716;8.760;2023-07-16T08:58:37;20.20;99.90
20208;DHT22;10263;48.716;8.760;2023-07-16T09:01:05;20.20;99.90
20208;DHT22;10263;48.716;8.760;2023-07-16T09:03:32;20.00;99.90
20208;DHT22;10263;48.716;8.760;2023-07-16T09:05:59;19.80;99.90
20208;DHT22;10263;48.716;8.760;2023-07-16T09:08:26;19.80;99.90
20208;DHT22;10263;48.716;8.760;2023-07-16T09:10:54;19.60;99.90
20208;DHT22;10263;48.716;8.760;2023-07-16T09:13:21;20.60;99.90
20208;DHT22;10263;48.716;8.760;2023-07-16T09:15:54;22.20;99.90
20208;DHT22;10263;48.716;8.760;2023-07-16T09:18:22;23.30;99.90
20208;DHT22;10263;48.716;8.760;2023-07-16T09:20:54;24.50;99.90
20208;DHT22;10263;48.716;8.760;2023-07-16T09:23:24;25.40;99.90
20208;DHT22;10263;48.716;8.760;2023-07-16T09:25:50;25.50;99.90
20208;DHT22;10263;48.716;8.760;2023-07-16T09:28:19;26.40;99.90
20208;DHT22;10263;48.716;8.760;2023-07-16T09:30:46;27.20;99.90
20208;DHT22;10263;48.716;8.760;2023-07-16T09:33:15;27.80;99.90
20208;DHT22;10263;48.716;8.760;2023-07-16T09:35:43;27.70;96.50
20208;DHT22;10263;48.716;8.760;2023-07-16T09:38:11;27.70;95.70
20208;DHT22;10263;48.716;8.760;2023-07-16T09:40:38;27.50;95.40
20208;DHT22;10263;48.716;8.760;2023-07-16T09:43:06;27.70;94.90
20208;DHT22;10263;48.716;8.760;2023-07-16T09:45:33;28.00;93.30
20208;DHT22;10263;48.716;8.760;2023-07-16T09:48:00;27.90;91.40
20208;DHT22;10263;48.716;8.760;2023-07-16T09:50:29;28.30;92.40
20208;DHT22;10263;48.716;8.760;2023-07-16T09:52:57;28.80;90.80
20208;DHT22;10263;48.716;8.760;2023-07-16T09:55:24;29.50;88.10
20208;DHT22;10263;48.716;8.760;2023-07-16T09:57:55;29.70;86.30
20208;DHT22;10263;48.716;8.760;2023-07-16T10:00:23;29.70;85.10
20208;DHT22;10263;48.716;8.760;2023-07-16T10:02:51;29.90;84.40
20208;DHT22;10263;48.716;8.760;2023-07-16T10:05:26;29.60;82.90
20208;DHT22;10263;48.716;8.760;2023-07-16T10:07:56;29.50;82.30
20208;DHT22;10263;48.716;8.760;2023-07-16T10:10:26;29.40;81.60
20208;DHT22;10263;48.716;8.760;2023-07-16T10:13:04;29.10;83.80
20208;DHT22;10263;48.716;8.760;2023-07-16T10:15:31;30.20;83.30
20208;DHT22;10263;48.716;8.760;2023-07-16T10:17:58;31.00;79.30
20208;DHT22;10263;48.716;8.760;2023-07-16T10:20:30;31.20;74.80
20208;DHT22;10263;48.716;8.760;2023-07-16T10:23:09;30.90;76.00
20208;DHT22;10263;48.716;8.760;2023-07-16T10:25:36;30.70;73.10
20208;DHT22;10263;48.716;8.760;2023-07-16T10:28:03;31.20;74.70
20208;DHT22;10263;48.716;8.760;2023-07-16T10:30:30;30.70;72.90
20208;DHT22;10263;48.716;8.760;2023-07-16T10:32:57;30.80;75.80
20208;DHT22;10263;48.716;8.760;2023-07-16T10:35:26;31.10;73.30
20208;DHT22;10263;48.716;8.760;2023-07-16T10:37:54;31.10;71.50
20208;DHT22;10263;48.716;8.760;2023-07-16T10:40:22;30.50;71.50
20208;DHT22;10263;48.716;8.760;2023-07-16T10:42:49;29.90;73.90
20208;DHT22;10263;48.716;8.760;2023-07-16T10:47:51;28.40;77.40
20208;DHT22;10263;48.716;8.760;2023-07-16T10:50:19;27.20;77.90
20208;DHT22;10263;48.716;8.760;2023-07-16T10:52:50;26.50;82.70
20208;DHT22;10263;48.716;8.760;2023-07-16T10:55:18;26.50;89.20
20208;DHT22;10263;48.716;8.760;2023-07-16T10:57:46;26.50;87.70
20208;DHT22;10263;48.716;8.760;2023-07-16T11:00:15;26.90;87.70
20208;DHT22;10263;48.716;8.760;2023-07-16T11:02:42;27.10;85.30
20208;DHT22;10263;48.716;8.760;2023-07-16T11:05:10;27.20;86.70
20208;DHT22;10263;48.716;8.760;2023-07-16T11:07:37;27.40;85.50
20208;DHT22;10263;48.716;8.760;2023-07-16T11:10:05;27.50;84.60
20208;DHT22;10263;48.716;8.760;2023-07-16T11:12:33;27.30;85.50
20208;DHT22;10263;48.716;8.760;2023-07-16T11:15:02;27.60;81.20
20208;DHT22;10263;48.716;8.760;2023-07-16T11:17:29;27.60;81.00
20208;DHT22;10263;48.716;8.760;2023-07-16T11:19:59;28.10;79.90
20208;DHT22;10263;48.716;8.760;2023-07-16T11:22:26;28.30;80.30
20208;DHT22;10263;48.716;8.760;2023-07-16T11:24:54;28.10;80.70
20208;DHT22;10263;48.716;8.760;2023-07-16T11:27:22;28.30;79.80
20208;DHT22;10263;48.716;8.760;2023-07-16T11:29:51;28.40;81.80
20208;DHT22;10263;48.716;8.760;2023-07-16T11:32:30;27.90;80.50
20208;DHT22;10263;48.716;8.760;2023-07-16T11:34:58;27.50;80.60
20208;DHT22;10263;48.716;8.760;2023-07-16T11:37:26;27.80;79.90
20208;DHT22;10263;48.716;8.760;2023-07-16T11:39:55;27.80;81.80
20208;DHT22;10263;48.716;8.760;2023-07-16T11:42:23;27.70;79.60
20208;DHT22;10263;48.716;8.760;2023-07-16T11:44:50;27.50;79.70
20208;DHT22;10263;48.716;8.760;2023-07-16T11:47:17;27.40;79.40
20208;DHT22;10263;48.716;8.760;2023-07-16T11:49:45;27.10;79.80
20208;DHT22;10263;48.716;8.760;2023-07-16T11:52:12;27.10;81.30
20208;DHT22;10263;48.716;8.760;2023-07-16T11:54:39;26.70;81.40
20208;DHT22;10263;48.716;8.760;2023-07-16T11:57:06;26.80;80.60
20208;DHT22;10263;48.716;8.760;2023-07-16T11:59:33;27.10;84.80
20208;DHT22;10263;48.716;8.760;2023-07-16T12:02:00;27.10;78.10
20208;DHT22;10263;48.716;8.760;2023-07-16T12:04:27;26.90;80.10
20208;DHT22;10263;48.716;8.760;2023-07-16T12:06:55;27.00;81.20
20208;DHT22;10263;48.716;8.760;2023-07-16T12:09:22;27.00;80.40
20208;DHT22;10263;48.716;8.760;2023-07-16T12:11:49;27.00;81.00
20208;DHT22;10263;48.716;8.760;2023-07-16T12:14:15;26.90;79.90
20208;DHT22;10263;48.716;8.760;2023-07-16T12:16:42;27.00;81.30
20208;DHT22;10263;48.716;8.760;2023-07-16T12:19:09;27.30;79.20
20208;DHT22;10263;48.716;8.760;2023-07-16T12:21:36;27.10;77.80
20208;DHT22;10263;48.716;8.760;2023-07-16T12:24:05;26.50;79.00
20208;DHT22;10263;48.716;8.760;2023-07-16T12:26:32;26.60;79.10
20208;DHT22;10263;48.716;8.760;2023-07-16T12:29:00;26.70;81.10
20208;DHT22;10263;48.716;8.760;2023-07-16T12:31:29;27.10;80.40
20208;DHT22;10263;48.716;8.760;2023-07-16T12:33:56;27.40;79.00
20208;DHT22;10263;48.716;8.760;2023-07-16T12:36:23;27.40;76.40
20208;DHT22;10263;48.716;8.760;2023-07-16T12:38:50;27.00;77.70
20208;DHT22;10263;48.716;8.760;2023-07-16T12:41:18;26.50;79.20
20208;DHT22;10263;48.716;8.760;2023-07-16T12:43:45;26.70;78.70
20208;DHT22;10263;48.716;8.760;2023-07-16T12:46:12;27.10;77.80
20208;DHT22;10263;48.716;8.760;2023-07-16T12:48:39;27.00;78.70
20208;DHT22;10263;48.716;8.760;2023-07-16T12:51:06;27.00;80.50
20208;DHT22;10263;48.716;8.760;2023-07-16T12:53:33;27.30;80.70
20208;DHT22;10263;48.716;8.760;2023-07-16T12:56:00;27.30;74.70
20208;DHT22;10263;48.716;8.760;2023-07-16T12:58:28;27.10;82.20
20208;DHT22;10263;48.716;8.760;2023-07-16T13:00:55;27.10;78.40
20208;DHT22;10263;48.716;8.760;2023-07-16T13:03:22;26.90;76.80
20208;DHT22;10263;48.716;8.760;2023-07-16T13:05:49;27.20;76.00
20208;DHT22;10263;48.716;8.760;2023-07-16T13:08:15;27.40;83.60
20208;DHT22;10263;48.716;8.760;2023-07-16T13:10:42;27.60;78.60
20208;DHT22;10263;48.716;8.760;2023-07-16T13:13:09;27.20;76.90
20208;DHT22;10263;48.716;8.760;2023-07-16T13:15:37;27.10;76.00
20208;DHT22;10263;48.716;8.760;2023-07-16T13:18:04;27.00;77.70
20208;DHT22;10263;48.716;8.760;2023-07-16T13:20:31;26.80;75.70
20208;DHT22;10263;48.716;8.760;2023-07-16T13:22:57;27.00;78.30
20208;DHT22;10263;48.716;8.760;2023-07-16T13:25:26;27.20;78.50
20208;DHT22;10263;48.716;8.760;2023-07-16T13:27:55;27.50;77.30
20208;DHT22;10263;48.716;8.760;2023-07-16T13:30:21;27.80;74.80
20208;DHT22;10263;48.716;8.760;2023-07-16T13:32:49;28.00;75.10
20208;DHT22;10263;48.716;8.760;2023-07-16T13:35:16;28.00;75.30
20208;DHT22;10263;48.716;8.760;2023-07-16T13:37:44;28.10;71.60
20208;DHT22;10263;48.716;8.760;2023-07-16T13:40:12;27.80;76.50
20208;DHT22;10263;48.716;8.760;2023-07-16T13:42:38;28.00;73.50
20208;DHT22;10263;48.716;8.760;2023-07-16T13:45:06;28.10;78.40
20208;DHT22;10263;48.716;8.760;2023-07-16T13:47:34;28.50;76.20
20208;DHT22;10263;48.716;8.760;2023-07-16T13:50:03;28.70;74.00
20208;DHT22;10263;48.716;8.760;2023-07-16T13:52:29;28.80;74.10
20208;DHT22;10263;48.716;8.760;2023-07-16T13:54:56;28.40;73.40
20208;DHT22;10263;48.716;8.760;2023-07-16T13:57:23;27.00;71.90
20208;DHT22;10263;48.716;8.760;2023-07-16T13:59:50;26.90;72.60
20208;DHT22;10263;48.716;8.760;2023-07-16T14:02:17;26.50;74.90
20208;DHT22;10263;48.716;8.760;2023-07-16T14:04:44;26.00;75.60
20208;DHT22;10263;48.716;8.760;2023-07-16T14:07:12;25.80;78.70
20208;DHT22;10263;48.716;8.760;2023-07-16T14:09:39;25.80;79.40
20208;DHT22;10263;48.716;8.760;2023-07-16T14:12:06;26.00;80.30
20208;DHT22;10263;48.716;8.760;2023-07-16T14:14:33;26.00;77.50
20208;DHT22;10263;48.716;8.760;2023-07-16T14:17:00;26.10;77.40
20208;DHT22;10263;48.716;8.760;2023-07-16T14:19:27;26.10;78.30
20208;DHT22;10263;48.716;8.760;2023-07-16T14:21:55;26.00;77.60
20208;DHT22;10263;48.716;8.760;2023-07-16T14:24:23;26.00;78.10
20208;DHT22;10263;48.716;8.760;2023-07-16T14:26:50;26.40;79.40
20208;DHT22;10263;48.716;8.760;2023-07-16T14:29:17;27.00;80.50
20208;DHT22;10263;48.716;8.760;2023-07-16T14:31:44;27.40;77.20
20208;DHT22;10263;48.716;8.760;2023-07-16T14:34:11;27.70;79.30
20208;DHT22;10263;48.716;8.760;2023-07-16T14:36:37;27.80;73.30
20208;DHT22;10263;48.716;8.760;2023-07-16T14:39:04;27.60;70.70
20208;DHT22;10263;48.716;8.760;2023-07-16T14:41:33;27.20;78.40
20208;DHT22;10263;48.716;8.760;2023-07-16T14:44:00;26.90;75.80
20208;DHT22;10263;48.716;8.760;2023-07-16T14:46:27;26.60;74.70
20208;DHT22;10263;48.716;8.760;2023-07-16T14:48:54;26.40;75.10
20208;DHT22;10263;48.716;8.760;2023-07-16T14:51:22;26.20;76.30
20208;DHT22;10263;48.716;8.760;2023-07-16T14:53:49;25.80;75.10
20208;DHT22;10263;48.716;8.760;2023-07-16T14:56:16;25.80;78.00
20208;DHT22;10263;48.716;8.760;2023-07-16T14:58:44;25.80;75.40
20208;DHT22;10263;48.716;8.760;2023-07-16T15:01:11;25.80;77.60
20208;DHT22;10263;48.716;8.760;2023-07-16T15:03:38;26.10;76.20
20208;DHT22;10263;48.716;8.760;2023-07-16T15:06:06;26.40;76.40
20208;DHT22;10263;48.716;8.760;2023-07-16T15:08:34;26.70;78.70
20208;DHT22;10263;48.716;8.760;2023-07-16T15:11:01;26.70;76.40
20208;DHT22;10263;48.716;8.760;2023-07-16T15:13:28;26.70;79.00
20208;DHT22;10263;48.716;8.760;2023-07-16T15:15:56;26.60;75.30
20208;DHT22;10263;48.716;8.760;2023-07-16T15:18:24;26.40;73.90
20208;DHT22;10263;48.716;8.760;2023-07-16T15:20:55;26.10;74.20
20208;DHT22;10263;48.716;8.760;2023-07-16T15:23:23;26.30;76.30
20208;DHT22;10263;48.716;8.760;2023-07-16T15:25:50;25.70;77.90
20208;DHT22;10263;48.716;8.760;2023-07-16T15:28:17;25.50;76.00
20208;DHT22;10263;48.716;8.760;2023-07-16T15:30:44;25.30;78.90
20208;DHT22;10263;48.716;8.760;2023-07-16T15:33:12;25.10;79.00
20208;DHT22;10263;48.716;8.760;2023-07-16T15:35:39;25.00;78.50
20208;DHT22;10263;48.716;8.760;2023-07-16T15:38:06;24.60;79.40
20208;DHT22;10263;48.716;8.760;2023-07-16T15:40:34;24.50;80.00